Home > Products > Valid Products > TAF

000
FTUS43 KIND 161100
TAFLAF
TAF
KLAF 161120Z 1612/1712 14004KT P6SM SCT250
     FM161400 16011KT P6SM SCT250
     FM161800 17014G19KT P6SM SCT150
     FM170000 14008KT P6SM BKN200
      AMD LTD TO CLD VIS AND WIND TIL 161300=



000
FTUS43 KIND 161100
TAFIND
TAF
KIND 161120Z 1612/1718 13007KT P6SM SCT250
     FM161400 14011KT P6SM SCT250
     FM161800 16012G19KT P6SM SCT150
     FM170000 13011KT P6SM BKN250
     FM171500 20012G20KT P6SM SCT200=



000
FTUS43 KIND 160800 AAA
TAFIND
TAF AMD
KIND 160826Z 1608/1712 13005KT P6SM SCT250
     FM161400 16015G23KT P6SM BKN150
     FM170000 15011KT P6SM BKN250=



000
FTUS43 KIND 160500
TAFIND
TAF
KIND 160520Z 1606/1712 VRB04KT P6SM SCT250
     FM161400 16015G23KT P6SM BKN150
     FM170000 15011KT P6SM BKN250=



000
FTUS43 KIND 160500
TAFLAF
TAF
KLAF 160520Z 1606/1706 VRB03KT P6SM SCT250
     FM161400 17014G22KT P6SM BKN130
     FM170000 14008KT P6SM BKN200
      AMD LTD TO CLD VIS AND WIND TIL 161300=



000
FTUS43 KIND 160200 AAA
TAFIND
TAF AMD
KIND 160220Z 1602/1706 VRB04KT P6SM SCT250
     FM161400 17015G23KT P6SM BKN180=



000
FTUS43 KIND 152300
TAFIND
TAF
KIND 152321Z 1600/1706 34008KT P6SM BKN060
     FM160200 VRB04KT P6SM SCT250
     FM161400 17015G23KT P6SM BKN180=



000
FTUS43 KIND 152300
TAFLAF
TAF
KLAF 152321Z 1600/1624 33006KT P6SM BKN060
     FM160200 VRB03KT P6SM SCT250
     FM161400 17014G22KT P6SM BKN150
      AMD LTD TO CLD VIS AND WIND 1601/1613=



000
FTUS43 KIND 152000 AAA
TAFIND
TAF AMD
KIND 152032Z 1521/1624 32015KT P6SM VCSH BKN050
     FM160000 31009KT P6SM SCT050
     FM160200 VRB05KT P6SM SCT250
     FM160900 16006KT P6SM SCT150
     FM161400 17015G23KT P6SM BKN150=



000
FTUS43 KIND 151700
TAFIND
TAF
KIND 151728Z 1518/1624 33016G24KT P6SM VCSH BKN040
     FM152200 31014KT P6SM SCT050
     FM160200 VRB05KT P6SM SCT250
     FM160900 16006KT P6SM SCT150
     FM161400 17015G23KT P6SM BKN150=



000
FTUS43 KIND 151700
TAFLAF
TAF
KLAF 151728Z 1518/1618 32013G18KT P6SM BKN050
     FM152100 33012KT P6SM SCT050
     FM160100 VRB03KT P6SM SCT250
     FM160800 17003KT P6SM SCT150
     FM161400 18014G22KT P6SM BKN150=



000
FTUS43 KIND 151600 AAA
TAFIND
TAF AMD
KIND 151603Z 1516/1618 32011KT P6SM SCT015 BKN025
      TEMPO 1516/1517 5SM -SN BR
     FM151800 33013G18KT P6SM BKN040
     FM160100 32008KT P6SM FEW050
     FM160700 14004KT P6SM SCT250
     FM161500 16014KT P6SM BKN250=



000
FTUS43 KIND 151400 AAA
TAFLAF
TAF AMD
KLAF 151414Z 1514/1612 33013KT P6SM SCT015 BKN025
     FM151700 33013G18KT P6SM BKN040
     FM160100 31007KT P6SM FEW050
     FM160700 17003KT P6SM SCT250=



000
FTUS43 KIND 151400 AAB
TAFIND
TAF AMD
KIND 151414Z 1514/1618 33015KT P6SM SCT015 BKN025
      TEMPO 1514/1516 5SM -SN BR
     FM151700 33013G18KT P6SM BKN040
     FM160100 32008KT P6SM FEW050
     FM160700 14004KT P6SM SCT250
     FM161500 16014KT P6SM BKN250=



000
FTUS43 KIND 151300 AAA
TAFIND
TAF AMD
KIND 151317Z 1513/1618 33015KT P6SM BKN015 OVC025
      TEMPO 1513/1514 5SM -SN BR
     FM151500 33011KT P6SM SCT020
     FM151700 33013G18KT P6SM BKN040
     FM160100 32008KT P6SM FEW050
     FM160700 14004KT P6SM SCT250
     FM161500 16014KT P6SM BKN250=



000
FTUS43 KIND 151100
TAFLAF
TAF
KLAF 151120Z 1512/1612 34014KT 4SM -SN BR BKN015 OVC030
     FM151400 33011KT P6SM SCT020
     FM151700 33013G18KT P6SM BKN040
     FM160100 31007KT P6SM FEW050
     FM160700 17003KT P6SM SCT250
      AMD LTD TO CLD VIS AND WIND TIL 151300=



000
FTUS43 KIND 151100
TAFIND
TAF
KIND 151120Z 1512/1618 33013KT P6SM BKN015 OVC025
      TEMPO 1512/1513 5SM -SN BR
     FM151500 33011KT P6SM SCT020
     FM151700 33013G18KT P6SM BKN040
     FM160100 32008KT P6SM FEW050
     FM160700 14004KT P6SM SCT250
     FM161500 16014KT P6SM BKN250=



000
FTUS43 KIND 150900 AAA
TAFIND
TAF AMD
KIND 150956Z 1510/1612 33012KT P6SM BKN015 OVC020
      TEMPO 1510/1512 3SM -SN BR
     FM151400 33011KT P6SM SCT020
     FM151700 33013G18KT P6SM BKN040
     FM160100 32008KT P6SM FEW050=



000
FTUS43 KIND 150800 AAA
TAFIND
TAF AMD
KIND 150826Z 1508/1612 34012KT P6SM BKN015 OVC020
      TEMPO 1509/1510 4SM -SN
     FM151400 33011KT P6SM SCT020
     FM151700 33013G18KT P6SM BKN040
     FM160100 32008KT P6SM FEW050=



000
FTUS43 KIND 150700 AAA
TAFLAF
TAF AMD
KLAF 150700Z 1507/1606 34014KT P6SM FEW008 BKN015 OVC025
      TEMPO 1507/1508 4SM -SN BKN008
     FM151300 33011KT P6SM SCT020
     FM151700 33013G18KT P6SM BKN040
     FM160100 31007KT P6SM FEW050
      AMD LTD TO CLD VIS AND WIND TIL 151300=



000
FTUS43 KIND 150500
TAFLAF
TAF
KLAF 150522Z 1506/1606 34011KT P6SM BKN015 OVC025
     FM151300 33011KT P6SM SCT020
     FM151700 33013G18KT P6SM BKN040
     FM160100 31007KT P6SM FEW050
      AMD LTD TO CLD VIS AND WIND TIL 151300=



000
FTUS43 KIND 150500
TAFIND
TAF
KIND 150522Z 1506/1612 33012KT P6SM BKN015 OVC020
      TEMPO 1506/1507 -SN
     FM151400 33011KT P6SM SCT020
     FM151700 33013G18KT P6SM BKN040
     FM160100 32008KT P6SM FEW050=



000
FTUS43 KIND 150400 AAB
TAFLAF
TAF AMD
KLAF 150419Z 1504/1524 33013KT P6SM OVC015
     FM151300 33011KT P6SM SCT020
     FM151700 33013G18KT P6SM BKN040
      AMD LTD TO CLD VIS AND WIND TIL 151300=



000
FTUS43 KIND 150400 AAA
TAFIND
TAF AMD
KIND 150417Z 1504/1606 34012KT 5SM -SN BR FEW008 BKN012
     FM150600 33013KT P6SM OVC015
     FM151400 33011KT P6SM SCT020
     FM151700 33013G18KT P6SM BKN040=



000
FTUS43 KIND 150200 AAA
TAFLAF
TAF AMD
KLAF 150228Z 1502/1524 34014G20KT 4SM -SN BR OVC012
      TEMPO 1503/1505 1 1/2SM -SN BR OVC008
     FM150500 34013KT P6SM OVC015
     FM151300 33011KT P6SM SCT020
     FM151700 33013G18KT P6SM BKN040
      AMD LTD TO CLD VIS AND WIND TIL 151300=



000
FTUS43 KIND 150200 AAA
TAFIND
TAF AMD
KIND 150220Z 1502/1606 34014G20KT 5SM -RASN BR OVC012
      TEMPO 1503/1506 1 1/2SM -RASN BR OVC008
     FM150600 33013KT P6SM OVC015
     FM151400 33011KT P6SM SCT020
     FM151700 33013G18KT P6SM BKN040=



000
FTUS43 KIND 142300
TAFLAF
TAF
KLAF 142321Z 1500/1524 35013KT 4SM -RA BR OVC012
      TEMPO 1500/1501 2SM -RA BR OVC008
     FM150100 34014G20KT 4SM -RA BR OVC012
      TEMPO 1501/1504 1 1/2SM -RASN BR OVC008
     FM150400 34013KT P6SM OVC015
     FM151300 33011KT P6SM SCT020
     FM151700 33013G18KT P6SM BKN040
      AMD LTD TO CLD VIS AND WIND 1501/1513=



000
FTUS43 KIND 142300
TAFIND
TAF
KIND 142321Z 1500/1606 34012KT 4SM -RA BR OVC012
      TEMPO 1500/1503 2SM RA BR OVC008
     FM150300 34014G20KT 4SM -RA BR OVC012
      TEMPO 1503/1506 1 1/2SM -RASN BR OVC008
     FM150600 33013KT P6SM OVC015
     FM151400 33011KT P6SM SCT020
     FM151700 33013G18KT P6SM BKN040=



000
FTUS43 KIND 142000 AAA
TAFLAF
TAF AMD
KLAF 142033Z 1421/1518 34014KT P6SM OVC015
     FM150000 34017G25KT 2SM -SN OVC008
     FM150700 33014G22KT P6SM BKN025
     FM151100 34015G23KT P6SM SCT035=



000
FTUS43 KIND 142000 AAA
TAFIND
TAF AMD
KIND 142030Z 1421/1524 34011KT P6SM OVC010
      TEMPO 1421/1501 5SM -RA BR
     FM150100 34017G25KT 3SM -RA BR OVC010
     FM150400 33018G26KT 2SM -SN BR OVC008
     FM150900 33017G25KT 6SM BR BKN020
     FM151300 32016G24KT P6SM BKN035=



000
FTUS43 KIND 141700
TAFIND
TAF
KIND 141730Z 1418/1524 30014KT 5SM -RA BR OVC012
     FM141900 31015G23KT P6SM VCSH OVC015
     FM150100 34017G25KT 3SM -RA BR OVC010
     FM150400 33018G26KT 2SM -SN BR OVC008
     FM150900 33017G25KT 6SM BR BKN020
     FM151300 32016G24KT P6SM BKN035=



000
FTUS43 KIND 141700
TAFLAF
TAF
KLAF 141730Z 1418/1518 34014KT 5SM BR VCSH OVC008
     FM141900 35015G23KT P6SM VCSH OVC015
     FM150000 34017G25KT 2SM -SN OVC008
     FM150700 33014G22KT P6SM BKN025
     FM151100 34015G23KT P6SM SCT035=



000
FTUS43 KIND 141500 AAA
TAFIND
TAF AMD
KIND 141555Z 1416/1518 28013KT P6SM VCSH OVC012
     FM141800 33015G23KT P6SM OVC025
     FM150200 34017G25KT 3SM -RASN OVC010
     FM150500 34017G25KT 1SM -SN BR OVC010
     FM151200 34017G25KT P6SM OVC035=



000
FTUS43 KIND 141400 AAA
TAFLAF
TAF AMD
KLAF 141442Z 1415/1512 30016G24KT P6SM VCSH OVC015
     FM141700 33015G23KT P6SM OVC025
     FM150000 34017G25KT 3SM -RASN OVC010
     FM150300 34017G25KT 1SM -SN BR OVC010
     FM151000 34017G25KT P6SM OVC035=



000
FTUS43 KIND 141400 AAA
TAFIND
TAF AMD
KIND 141441Z 1415/1518 28016G24KT P6SM OVC012
     FM141700 33015G23KT P6SM OVC025
     FM150200 34017G25KT 3SM -RASN OVC010
     FM150500 34017G25KT 1SM -SN BR OVC010
     FM151200 34017G25KT P6SM OVC035=



000
FTUS43 KIND 141100
TAFLAF
TAF
KLAF 141120Z 1412/1512 26016G26KT P6SM OVC012
     FM141500 33015G23KT P6SM OVC025
     FM150000 34017G25KT 3SM -RASN OVC010
     FM150300 34017G25KT 1SM -SN BR OVC010
     FM151000 34017G25KT P6SM OVC035
      AMD LTD TO CLD VIS AND WIND TIL 141300=



000
FTUS43 KIND 141100
TAFIND
TAF
KIND 141120Z 1412/1518 19018G26KT P6SM -RA OVC015
     FM141400 26016G24KT P6SM OVC012
     FM141700 33015G23KT P6SM OVC025
     FM150200 34017G25KT 3SM -RASN OVC010
     FM150500 34017G25KT 1SM -SN BR OVC010
     FM151200 34017G25KT P6SM OVC035=



000
FTUS43 KIND 140800 AAA
TAFIND
TAF AMD
KIND 140820Z 1408/1512 18020G30KT 6SM -RA SCT025 OVC050
     FM140900 19020G32KT 5SM -RA OVC015
     FM141400 21016G24KT 5SM -RA BR OVC008
     FM141700 33015G23KT P6SM OVC025
     FM150200 34017G25KT 6SM -RA OVC025=



000
FTUS43 KIND 140500
TAFLAF
TAF
KLAF 140520Z 1406/1506 18016G24KT P6SM SCT025 OVC040
      TEMPO 1406/1409 3SM TSRA BKN025 OVC040CB
     FM140900 19020G32KT 6SM -RA OVC015
      TEMPO 1409/1412 3SM RA BR
     FM141200 21016G24KT 5SM -RA BR OVC008
     FM141600 33015G23KT P6SM OVC025
     FM150200 34017G25KT 6SM -RA OVC025
      AMD LTD TO CLD VIS AND WIND TIL 141300=



000
FTUS43 KIND 140500
TAFIND
TAF
KIND 140520Z 1406/1512 18016G24KT 6SM -RA SCT025 OVC050
     FM141000 19020G32KT 6SM -RA OVC015
      TEMPO 1412/1414 3SM TSRA BR OVC015CB
     FM141400 21016G24KT 5SM -RA BR OVC008
     FM141700 33015G23KT P6SM OVC025
     FM150200 34017G25KT 6SM -RA OVC025=



000
FTUS43 KIND 140200 AAA
TAFIND
TAF AMD
KIND 140223Z 1402/1506 19011KT P6SM SCT050 OVC100
     FM140600 18017G26KT 6SM -RA SCT025 OVC050
      TEMPO 1406/1410 3SM TSRA BKN025 OVC050CB
     FM141000 19020G32KT 6SM -RA OVC015
      TEMPO 1410/1413 3SM RA BR
     FM141300 21016G24KT 5SM -RA BR OVC008
     FM141700 33015G23KT P6SM OVC025=



000
FTUS43 KIND 132300
TAFIND
TAF
KIND 132324Z 1400/1506 19015G23KT P6SM SCT050 OVC100
     FM140500 18017G26KT P6SM SCT025 OVC040
      TEMPO 1405/1409 3SM TSRA BKN025 OVC040CB
     FM140900 19020G32KT 6SM -RA OVC015
      TEMPO 1409/1413 3SM RA BR
     FM141300 21016G24KT 5SM -RA BR OVC008
     FM141700 33015G23KT P6SM OVC025=



000
FTUS43 KIND 132300
TAFLAF
TAF
KLAF 132324Z 1400/1424 19015G23KT P6SM BKN050 OVC100
     FM140400 18017G26KT P6SM SCT025 OVC040
      TEMPO 1404/1408 3SM TSRA BKN025 OVC040CB
     FM140800 19020G32KT 6SM -RA OVC015
      TEMPO 1408/1412 3SM RA BR
     FM141200 21016G24KT 5SM -RA BR OVC008
     FM141600 33015G23KT P6SM OVC025
      AMD LTD TO CLD VIS AND WIND 1401/1413=



000
FTUS43 KIND 132000 AAA
TAFIND
TAF AMD
KIND 132017Z 1320/1424 20017G25KT P6SM BKN050 OVC150
     FM140500 18020G28KT 5SM -SHRA BR VCTS OVC040CB
     FM140800 19022G30KT 4SM SHRA BR VCTS OVC025CB
     FM141300 25020G28KT 3SM -SHRA BR OVC012
     FM141700 33018G26KT 5SM -SHRA BR OVC015=



000
FTUS43 KIND 131700
TAFLAF
TAF
KLAF 131731Z 1318/1418 22017G25KT P6SM BKN050
     FM132300 18016G24KT P6SM VCTS SCT025 OVC040CB
     FM140300 20018G26KT 5SM SHRA BR VCTS OVC025CB
     FM141000 22017G25KT 3SM SHRA BR VCTS OVC015CB
     FM141400 32016G24KT 3SM -SHRA BR OVC010=



000
FTUS43 KIND 131700
TAFIND
TAF
KIND 131731Z 1318/1424 21022G32KT P6SM SCT050 BKN150
     FM140000 19018G26KT P6SM SCT050 OVC120
     FM140500 18020G28KT 5SM -SHRA BR VCTS OVC040CB
     FM140800 19022G30KT 4SM SHRA BR VCTS OVC025CB
     FM141300 25020G28KT 3SM -SHRA BR OVC012
     FM141700 33018G26KT 5SM -SHRA BR OVC015=



000
FTUS43 KIND 131400 AAA
TAFLAF
TAF AMD
KLAF 131416Z 1314/1412 22015G23KT P6SM SCT060 BKN150
     FM131700 21020G30KT P6SM BKN050
     FM140000 19016G24KT 5SM -SHRA VCTS OVC040CB
     FM140400 20016G24KT 5SM SHRA VCTS OVC025CB
     FM141000 31016G24KT 3SM SHRA BR OVC012=



000
FTUS43 KIND 131400 AAA
TAFIND
TAF AMD
KIND 131414Z 1314/1418 20018G26KT P6SM SCT060 BKN200
     FM131600 20022G32KT P6SM SCT050 BKN120
     FM140000 19016G24KT P6SM SCT050 OVC100
     FM140200 19016G24KT 5SM -SHRA VCTS OVC040CB
     FM140600 20016G24KT 5SM SHRA VCTS OVC025CB
     FM141300 31016G24KT 3SM SHRA BR OVC012=



    US Dept of Commerce
    National Oceanic and Atmospheric Administration
    National Weather Service
    1325 East West Highway
    Silver Spring, MD 20910
    Page Author: NWS Internet Services Team
Disclaimer
Information Quality
Credits
Glossary
Privacy Policy
Freedom of Information Act (FOIA)
About Us
Career Opportunities